Time;durP1;ratioP1;P1;durP2;ratioP2;P2;SDS_P1;SDS_P2;PMS_P1;PMS_P2;Temp;Humidity;BMP_temperature;BMP_pressure;BME280_temperature;BME280_humidity;BME280_pressure;Samples;Min_cycle;Max_cycle;Signal;HPM_P1;HPM_P2
2022/05/25 00:00:35;;;;;;;0.70;0.50;;;18.10;65.80;;;;;;4935091;29;20468;-70
2022/05/25 00:03:03;;;;;;;0.70;0.60;;;18.20;65.40;;;;;;4934665;29;20488;-70
2022/05/25 00:05:30;;;;;;;0.63;0.60;;;18.20;65.40;;;;;;4935123;29;20935;-70
2022/05/25 03:01:28;;;;;;;0.70;0.60;;;17.20;64.60;;;;;;5682858;23;20834;-68
2022/05/25 03:03:55;;;;;;;0.67;0.50;;;17.10;64.80;;;;;;4973804;28;21102;-69
2022/05/25 03:06:22;;;;;;;0.70;0.50;;;17.10;64.80;;;;;;4974213;28;20516;-68
2022/05/25 03:08:49;;;;;;;0.70;0.50;;;17.20;64.70;;;;;;4974060;28;20445;-68
2022/05/25 03:11:16;;;;;;;0.70;0.50;;;17.20;64.80;;;;;;4973961;28;20465;-69
2022/05/25 03:13:47;;;;;;;0.70;0.50;;;17.10;64.90;;;;;;4974078;28;20508;-68
2022/05/25 03:16:15;;;;;;;0.70;0.50;;;17.10;64.60;;;;;;4975215;28;20449;-68
2022/05/25 03:18:43;;;;;;;0.70;0.50;;;17.10;64.20;;;;;;4973919;28;20864;-68
2022/05/25 03:21:10;;;;;;;0.70;0.53;;;17.10;64.30;;;;;;4973881;28;20576;-68
2022/05/25 03:23:37;;;;;;;0.70;0.60;;;17.00;64.10;;;;;;4973926;28;20465;-67
2022/05/25 03:26:04;;;;;;;0.70;0.50;;;17.00;64.70;;;;;;4973929;28;20492;-68
2022/05/25 03:28:31;;;;;;;1.27;0.60;;;17.00;64.10;;;;;;4973768;28;20446;-68
2022/05/25 03:30:57;;;;;;;0.70;0.50;;;16.90;63.90;;;;;;4973729;28;20536;-69
2022/05/25 03:33:24;;;;;;;0.70;0.60;;;16.90;64.10;;;;;;4974176;28;20798;-69
2022/05/25 03:35:52;;;;;;;0.70;0.60;;;16.90;64.60;;;;;;4973694;28;20537;-68
2022/05/25 03:38:19;;;;;;;0.70;0.50;;;16.90;64.50;;;;;;4973923;28;20454;-68
2022/05/25 03:40:46;;;;;;;0.70;0.60;;;17.00;64.80;;;;;;4973754;28;20473;-69
2022/05/25 03:43:18;;;;;;;0.70;0.50;;;17.00;65.20;;;;;;4973688;28;20529;-69
2022/05/25 03:45:45;;;;;;;0.93;0.60;;;17.00;64.20;;;;;;4974498;28;20556;-68
2022/05/25 03:48:11;;;;;;;0.70;0.60;;;16.90;64.50;;;;;;4973503;28;20823;-68
2022/05/25 03:50:40;;;;;;;0.70;0.50;;;16.80;64.70;;;;;;4973603;28;20520;-69
2022/05/25 03:53:10;;;;;;;0.60;0.50;;;16.80;65.10;;;;;;4973688;28;20817;-69
2022/05/25 03:55:36;;;;;;;0.70;0.50;;;16.90;65.40;;;;;;4973855;28;20450;-69
2022/05/25 03:58:03;;;;;;;0.60;0.50;;;16.90;65.30;;;;;;4973641;28;20454;-70
2022/05/25 04:00:31;;;;;;;0.70;0.50;;;16.90;65.10;;;;;;4974650;28;20454;-69
2022/05/25 04:02:59;;;;;;;0.60;0.50;;;16.90;65.00;;;;;;4977433;28;20649;-69
2022/05/25 04:05:26;;;;;;;0.80;0.50;;;16.90;65.10;;;;;;4977484;28;20485;-69
2022/05/25 04:07:54;;;;;;;0.60;0.50;;;16.90;65.40;;;;;;4976968;28;20789;-68
2022/05/25 04:10:23;;;;;;;0.90;0.60;;;16.90;65.60;;;;;;4976847;28;20967;-69
2022/05/25 04:12:50;;;;;;;0.67;0.50;;;16.90;65.80;;;;;;4977120;28;20497;-69
2022/05/25 04:15:20;;;;;;;0.80;0.50;;;16.90;66.00;;;;;;4977016;28;20452;-69
2022/05/25 04:17:46;;;;;;;0.67;0.53;;;16.90;65.70;;;;;;4976903;28;20577;-68
2022/05/25 04:20:14;;;;;;;0.70;0.50;;;16.90;65.60;;;;;;4976901;28;20454;-69
2022/05/25 04:22:41;;;;;;;0.60;0.50;;;16.90;66.00;;;;;;4977401;28;20532;-68
2022/05/25 04:25:11;;;;;;;0.70;0.50;;;17.00;65.90;;;;;;4976807;28;20532;-68
2022/05/25 04:27:41;;;;;;;0.80;0.50;;;17.00;65.70;;;;;;4977681;28;20541;-68
2022/05/25 04:30:11;;;;;;;1.67;0.60;;;17.00;65.60;;;;;;4977874;28;20509;-69
2022/05/25 04:32:38;;;;;;;0.70;0.50;;;16.90;65.40;;;;;;4977757;28;20601;-70
2022/05/25 04:35:05;;;;;;;0.70;0.60;;;16.90;66.00;;;;;;4977571;28;20450;-69
2022/05/25 04:37:52;;;;;;;0.70;0.50;;;16.90;66.10;;;;;;4977662;28;20450;-68
2022/05/25 04:40:23;;;;;;;1.43;0.60;;;16.90;66.10;;;;;;4978154;28;20434;-70
2022/05/25 04:42:52;;;;;;;0.70;0.60;;;16.90;66.40;;;;;;4977458;28;20501;-70
2022/05/25 04:45:20;;;;;;;0.67;0.50;;;16.90;66.00;;;;;;4977179;28;20780;-69
2022/05/25 04:47:47;;;;;;;0.70;0.60;;;16.90;66.10;;;;;;4977091;28;20874;-69
2022/05/25 04:50:16;;;;;;;0.63;0.50;;;16.90;66.10;;;;;;4977004;28;21004;-72
2022/05/25 04:52:43;;;;;;;1.03;0.53;;;16.90;66.30;;;;;;4977129;28;20521;-68
2022/05/25 04:57:19;;;;;;;0.70;0.50;;;16.90;66.30;;;;;;4977545;28;20450;-71
2022/05/25 04:57:58;;;;;;;0.80;0.50;;;16.90;66.20;;;;;;4976770;28;20454;-70
2022/05/25 05:00:25;;;;;;;0.70;0.60;;;17.00;66.20;;;;;;4977036;28;20430;-74
2022/05/25 05:02:53;;;;;;;0.63;0.60;;;17.00;65.30;;;;;;4976850;28;20524;-70
2022/05/25 05:05:20;;;;;;;0.70;0.50;;;17.00;65.70;;;;;;4977587;28;20496;-71
2022/05/25 05:07:47;;;;;;;0.70;0.57;;;17.00;65.40;;;;;;4976370;28;20509;-70
2022/05/25 05:10:14;;;;;;;0.70;0.50;;;16.90;65.30;;;;;;4975968;28;20826;-70
2022/05/25 05:12:42;;;;;;;0.70;0.60;;;16.90;65.90;;;;;;4975185;28;20517;-70
2022/05/25 05:15:11;;;;;;;0.70;0.60;;;16.90;65.70;;;;;;4976262;28;20530;-70
2022/05/25 05:17:38;;;;;;;0.63;0.53;;;17.00;65.50;;;;;;4976162;28;20450;-71
2022/05/25 05:20:05;;;;;;;0.70;0.60;;;16.90;65.70;;;;;;4976004;28;20500;-71
2022/05/25 05:22:34;;;;;;;0.67;0.50;;;16.90;65.90;;;;;;4976046;28;20529;-70
2022/05/25 05:25:01;;;;;;;0.70;0.50;;;16.90;66.40;;;;;;4975898;28;20507;-71
2022/05/25 05:27:28;;;;;;;0.70;0.50;;;17.00;66.20;;;;;;4975725;28;20917;-71
2022/05/25 05:29:55;;;;;;;0.70;0.50;;;17.00;66.50;;;;;;4975983;28;20500;-71
2022/05/25 05:32:23;;;;;;;0.70;0.60;;;17.00;66.90;;;;;;4975992;28;20544;-71
2022/05/25 05:34:50;;;;;;;0.70;0.60;;;17.10;67.00;;;;;;4975896;28;20814;-72
2022/05/25 05:37:21;;;;;;;0.67;0.50;;;17.30;66.10;;;;;;4975937;28;20518;-71
2022/05/25 05:39:52;;;;;;;0.80;0.60;;;17.40;65.80;;;;;;4976286;28;20538;-72
2022/05/25 05:42:20;;;;;;;0.60;0.50;;;17.50;66.10;;;;;;4975700;28;20477;-71
2022/05/25 05:44:50;;;;;;;0.60;0.50;;;17.50;65.20;;;;;;4975646;28;20481;-71
2022/05/25 05:47:23;;;;;;;0.60;0.60;;;17.50;65.30;;;;;;4976344;28;20505;-73
2022/05/25 05:49:51;;;;;;;0.70;0.50;;;17.60;64.60;;;;;;4975570;28;20848;-71
2022/05/25 05:52:17;;;;;;;1.17;0.90;;;17.70;64.70;;;;;;4975678;28;20845;-74
2022/05/25 05:54:44;;;;;;;0.70;0.50;;;17.70;64.50;;;;;;4975921;28;20504;-71
2022/05/25 05:57:12;;;;;;;0.70;0.57;;;17.90;64.60;;;;;;4976072;28;20799;-70
2022/05/25 05:59:39;;;;;;;0.70;0.60;;;17.90;64.50;;;;;;4975821;28;20923;-70
2022/05/25 06:02:06;;;;;;;0.77;0.60;;;18.00;64.70;;;;;;4975152;28;20486;-72
2022/05/25 06:04:33;;;;;;;0.80;0.57;;;18.00;64.50;;;;;;4975371;28;20537;-71
2022/05/25 06:07:03;;;;;;;0.70;0.60;;;18.10;64.20;;;;;;4975354;28;20461;-72
2022/05/25 06:09:30;;;;;;;0.60;0.50;;;18.00;65.00;;;;;;4975475;28;20476;-68
2022/05/25 06:11:57;;;;;;;0.73;0.70;;;18.40;64.90;;;;;;4975017;28;20995;-68
2022/05/25 06:14:23;;;;;;;0.70;0.60;;;18.70;63.30;;;;;;4975051;28;20449;-68
2022/05/25 06:19:37;;;;;;;1.30;0.60;;;18.80;62.20;;;;;;4975124;28;20905;-68
2022/05/25 06:22:08;;;;;;;0.60;0.50;;;18.60;60.70;;;;;;4975124;28;20477;-67
2022/05/25 06:24:37;;;;;;;0.70;0.60;;;18.70;61.80;;;;;;4974912;28;20440;-67
2022/05/25 06:27:08;;;;;;;0.70;0.60;;;18.60;61.40;;;;;;4974741;28;20900;-67
2022/05/25 06:29:36;;;;;;;0.67;0.57;;;18.70;61.90;;;;;;4975029;28;20427;-67
2022/05/25 06:32:04;;;;;;;0.70;0.50;;;18.60;62.40;;;;;;4974844;28;20469;-67
2022/05/25 06:34:31;;;;;;;0.67;0.60;;;18.50;62.10;;;;;;4974802;28;20450;-68
2022/05/25 06:36:57;;;;;;;0.60;0.50;;;18.50;61.90;;;;;;4974829;28;20856;-67
2022/05/25 06:39:25;;;;;;;0.70;0.60;;;18.60;63.10;;;;;;4974767;28;20454;-67
2022/05/25 06:41:52;;;;;;;0.70;0.60;;;18.40;63.00;;;;;;4974715;28;20473;-68
2022/05/25 06:44:19;;;;;;;0.60;0.50;;;18.60;63.50;;;;;;4974625;28;20454;-68
2022/05/25 06:46:46;;;;;;;0.60;0.50;;;18.70;62.60;;;;;;4974636;28;20540;-68
2022/05/25 06:49:15;;;;;;;0.70;0.60;;;18.60;62.50;;;;;;4974719;28;21000;-68
2022/05/25 06:51:41;;;;;;;0.90;0.77;;;18.70;62.60;;;;;;4974503;28;20478;-69
2022/05/25 06:54:08;;;;;;;0.70;0.50;;;18.70;63.50;;;;;;4974053;28;21012;-68
2022/05/25 06:56:36;;;;;;;0.70;0.60;;;18.70;62.40;;;;;;4974199;28;20961;-67
2022/05/25 06:59:03;;;;;;;0.70;0.60;;;18.70;62.80;;;;;;4974429;28;20453;-67
2022/05/25 07:01:30;;;;;;;0.60;0.53;;;18.70;63.20;;;;;;4973873;28;21073;-67
2022/05/25 07:03:57;;;;;;;0.60;0.50;;;18.90;62.90;;;;;;4974229;28;20450;-67
2022/05/25 07:06:25;;;;;;;0.60;0.50;;;18.80;62.40;;;;;;4974194;28;20482;-67
2022/05/25 07:08:52;;;;;;;0.63;0.50;;;19.10;63.00;;;;;;4974156;28;20453;-68
2022/05/25 07:11:20;;;;;;;0.80;0.67;;;19.30;60.80;;;;;;4974118;28;20529;-68
2022/05/25 07:13:48;;;;;;;0.60;0.50;;;19.40;61.90;;;;;;4974169;28;20505;-68
2022/05/25 07:16:17;;;;;;;0.70;0.50;;;19.50;60.30;;;;;;4973847;28;20964;-68
2022/05/25 07:18:45;;;;;;;0.60;0.50;;;19.90;59.30;;;;;;4974034;28;20453;-68
2022/05/25 07:21:15;;;;;;;0.60;0.50;;;20.40;56.40;;;;;;4973977;28;20469;-68
2022/05/25 07:23:43;;;;;;;0.67;0.50;;;20.60;56.60;;;;;;4974099;28;20454;-68
2022/05/25 07:26:11;;;;;;;0.70;0.60;;;20.70;55.10;;;;;;4973952;28;20516;-68
2022/05/25 07:28:38;;;;;;;0.60;0.57;;;20.80;54.80;;;;;;4974344;28;20458;-69
2022/05/25 07:31:09;;;;;;;0.80;0.60;;;20.50;55.20;;;;;;4974307;28;20466;-69
2022/05/25 07:33:38;;;;;;;0.60;0.50;;;20.60;54.60;;;;;;4974100;28;20496;-68
2022/05/25 07:36:08;;;;;;;0.70;0.60;;;21.00;54.20;;;;;;4973191;28;20890;-68
2022/05/25 07:38:35;;;;;;;0.70;0.60;;;21.20;53.50;;;;;;4973711;28;20964;-68
2022/05/25 07:41:02;;;;;;;0.60;0.50;;;21.20;53.50;;;;;;4973724;28;20478;-69
2022/05/25 07:43:32;;;;;;;0.80;0.60;;;21.40;53.70;;;;;;4974123;28;20458;-69
2022/05/25 07:45:59;;;;;;;0.70;0.53;;;21.50;52.60;;;;;;4973853;28;20466;-69
2022/05/25 07:48:27;;;;;;;0.60;0.53;;;21.60;52.50;;;;;;4973753;28;20478;-68
2022/05/25 07:50:54;;;;;;;0.70;0.50;;;21.80;52.00;;;;;;4973716;28;20553;-68
2022/05/25 07:56:06;;;;;;;0.67;0.50;;;22.30;52.20;;;;;;4974024;28;20406;-69
2022/05/25 07:58:33;;;;;;;0.70;0.60;;;22.70;52.30;;;;;;4973358;28;20868;-68
2022/05/25 08:01:05;;;;;;;0.80;0.50;;;23.10;51.20;;;;;;4973535;28;20512;-68
2022/05/25 08:06:18;;;;;;;0.60;0.50;;;23.00;50.50;;;;;;4973755;28;20832;-68
2022/05/25 08:08:46;;;;;;;0.60;0.50;;;22.70;51.70;;;;;;4973841;28;20464;-69
2022/05/25 08:11:16;;;;;;;0.60;0.50;;;22.20;50.80;;;;;;4973654;28;20469;-69
2022/05/25 08:13:45;;;;;;;0.70;0.60;;;21.70;52.70;;;;;;4973703;28;20462;-68
2022/05/25 08:16:12;;;;;;;0.60;0.50;;;21.10;53.30;;;;;;4973300;28;20450;-68
2022/05/25 08:18:40;;;;;;;0.70;0.60;;;20.70;53.80;;;;;;4973436;28;20474;-68
2022/05/25 08:21:07;;;;;;;0.80;0.60;;;20.60;54.60;;;;;;4973208;28;20849;-67
2022/05/25 08:23:34;;;;;;;0.60;0.50;;;20.40;54.00;;;;;;4973506;28;20457;-68
2022/05/25 08:26:01;;;;;;;0.70;0.60;;;20.20;56.20;;;;;;4973415;28;20481;-68
2022/05/25 08:28:27;;;;;;;0.70;0.60;;;20.40;56.40;;;;;;4973432;28;20453;-67
2022/05/25 08:30:54;;;;;;;0.60;0.50;;;20.60;57.90;;;;;;4973507;28;20469;-69
2022/05/25 08:33:23;;;;;;;0.67;0.57;;;20.90;56.50;;;;;;4973215;28;20790;-68
2022/05/25 08:35:51;;;;;;;0.60;0.50;;;21.10;53.30;;;;;;4973327;28;20500;-68
2022/05/25 08:38:21;;;;;;;0.70;0.60;;;21.30;55.30;;;;;;4973489;28;20450;-68
2022/05/25 08:40:48;;;;;;;0.70;0.50;;;21.40;53.20;;;;;;4973505;28;20470;-68
2022/05/25 08:43:19;;;;;;;0.60;0.50;;;21.20;53.40;;;;;;4973484;28;20536;-69
2022/05/25 08:45:50;;;;;;;0.67;0.50;;;21.30;54.20;;;;;;4973311;28;21095;-67
2022/05/25 08:48:20;;;;;;;0.70;0.60;;;21.40;54.60;;;;;;4976903;28;20438;-68
2022/05/25 08:50:54;;;;;;;0.70;0.60;;;21.30;53.90;;;;;;4976717;28;20474;-69
2022/05/25 08:53:23;;;;;;;0.60;0.50;;;21.20;53.10;;;;;;4976846;28;20430;-68
2022/05/25 08:55:58;;;;;;;0.90;0.60;;;20.90;54.70;;;;;;4976794;28;20540;-68
2022/05/25 08:58:34;;;;;;;0.80;0.60;;;20.50;55.00;;;;;;4976831;28;20426;-67
2022/05/25 09:01:05;;;;;;;0.80;0.60;;;20.60;55.50;;;;;;4976531;28;20536;-68
2022/05/25 09:03:39;;;;;;;2.20;0.60;;;20.30;55.40;;;;;;4976717;28;20440;-67
2022/05/25 09:06:16;;;;;;;0.70;0.50;;;20.10;57.00;;;;;;4976659;28;20544;-67
2022/05/25 09:08:52;;;;;;;0.90;0.50;;;19.90;57.70;;;;;;4976765;28;20434;-67
2022/05/25 09:11:26;;;;;;;0.70;0.50;;;20.10;58.60;;;;;;4976197;28;21051;-68
2022/05/25 09:13:56;;;;;;;0.80;0.60;;;20.70;53.90;;;;;;4976430;28;20485;-68
2022/05/25 09:16:25;;;;;;;0.70;0.50;;;21.00;53.40;;;;;;4977630;28;20438;-68
2022/05/25 09:19:00;;;;;;;0.70;0.60;;;21.10;53.40;;;;;;4976303;28;20460;-68
2022/05/25 09:21:32;;;;;;;0.60;0.50;;;21.20;53.00;;;;;;4976288;28;20473;-68
2022/05/25 09:24:03;;;;;;;0.90;0.60;;;21.30;52.40;;;;;;4976088;28;20949;-68
2022/05/25 09:26:31;;;;;;;0.87;0.60;;;21.40;52.80;;;;;;4976168;28;20466;-68
2022/05/25 09:29:02;;;;;;;0.80;0.60;;;21.40;52.90;;;;;;4976229;28;20524;-67
2022/05/25 09:31:35;;;;;;;0.80;0.70;;;21.20;52.90;;;;;;4976319;28;20465;-67
2022/05/25 09:34:08;;;;;;;0.70;0.60;;;21.20;53.20;;;;;;4976893;28;20438;-68
2022/05/25 09:36:41;;;;;;;0.67;0.50;;;21.30;54.20;;;;;;4976364;28;20441;-68
2022/05/25 09:39:15;;;;;;;0.60;0.50;;;21.30;53.50;;;;;;4976006;28;20438;-68
2022/05/25 09:41:44;;;;;;;0.70;0.50;;;21.30;53.40;;;;;;4976164;28;20496;-69
2022/05/25 09:44:12;;;;;;;1.00;0.50;;;21.20;54.70;;;;;;4976456;28;20806;-69
2022/05/25 09:46:43;;;;;;;0.60;0.60;;;21.20;53.90;;;;;;4975700;28;20544;-68
2022/05/25 09:49:12;;;;;;;0.60;0.57;;;21.10;53.90;;;;;;4976109;28;20493;-68
2022/05/25 09:51:45;;;;;;;0.70;0.60;;;21.20;54.90;;;;;;4975257;28;20846;-68
2022/05/25 09:54:16;;;;;;;0.60;0.50;;;21.10;53.90;;;;;;4976084;28;20435;-68
2022/05/25 09:56:50;;;;;;;0.70;0.60;;;21.10;53.60;;;;;;4975786;28;20517;-67
2022/05/25 09:59:25;;;;;;;0.90;0.53;;;21.00;53.70;;;;;;4975276;28;20448;-69
2022/05/25 10:01:54;;;;;;;0.60;0.50;;;21.00;54.70;;;;;;4975750;28;20481;-69
2022/05/25 10:04:36;;;;;;;0.60;0.50;;;20.90;54.60;;;;;;4975750;28;20461;-69
2022/05/25 10:07:19;;;;;;;0.60;0.50;;;20.60;57.10;;;;;;4975440;28;20558;-68
2022/05/25 10:09:50;;;;;;;0.60;0.50;;;20.60;55.70;;;;;;4975726;28;20446;-68
2022/05/25 10:12:26;;;;;;;0.70;0.50;;;20.60;54.10;;;;;;4975509;28;20477;-68
2022/05/25 10:14:58;;;;;;;0.63;0.53;;;20.90;54.80;;;;;;4975340;28;20426;-68
2022/05/25 10:17:35;;;;;;;0.60;0.50;;;21.10;52.30;;;;;;4974992;28;20446;-68
2022/05/25 10:20:04;;;;;;;0.70;0.60;;;21.20;53.90;;;;;;4975241;28;20484;-69
2022/05/25 10:22:44;;;;;;;0.60;0.50;;;21.40;51.10;;;;;;4975053;28;20545;-69
2022/05/25 10:25:29;;;;;;;0.70;0.60;;;21.40;52.50;;;;;;4975180;28;20865;-69
2022/05/25 10:27:59;;;;;;;0.60;0.50;;;21.60;54.90;;;;;;4974901;28;20870;-68
2022/05/25 10:38:51;;;;;;;0.77;0.50;;;22.00;49.40;;;;;;4974838;28;20537;-68
2022/05/25 10:41:41;;;;;;;0.70;0.50;;;22.50;50.20;;;;;;4974571;28;20533;-69
2022/05/25 10:44:16;;;;;;;0.80;0.50;;;22.40;48.40;;;;;;4974358;28;20909;-69
2022/05/25 10:46:52;;;;;;;0.60;0.50;;;22.10;50.90;;;;;;4974296;28;21061;-69
2022/05/25 10:49:24;;;;;;;0.60;0.50;;;22.00;50.90;;;;;;4974431;28;20434;-69
2022/05/25 10:51:55;;;;;;;0.70;0.50;;;22.00;52.70;;;;;;4975388;28;20469;-70
2022/05/25 10:54:50;;;;;;;0.83;0.60;;;22.00;49.90;;;;;;4975392;28;20516;-69
2022/05/25 10:58:17;;;;;;;0.80;0.50;;;22.10;50.40;;;;;;4975984;28;20457;-68
2022/05/25 11:00:56;;;;;;;0.70;0.60;;;22.10;50.70;;;;;;4934367;29;20472;-69
2022/05/25 11:03:52;;;;;;;0.60;0.50;;;22.30;50.20;;;;;;4975791;28;20965;-69
2022/05/25 11:06:35;;;;;;;0.70;0.70;;;22.50;50.00;;;;;;4967712;28;20505;-69
2022/05/25 11:09:14;;;;;;;0.60;0.50;;;22.70;50.70;;;;;;4977030;28;20526;-69
2022/05/25 11:11:54;;;;;;;1.13;0.60;;;22.90;49.40;;;;;;4976330;28;20883;-69
2022/05/25 11:14:35;;;;;;;0.60;0.50;;;22.90;48.20;;;;;;4976904;28;20462;-69
2022/05/25 11:17:06;;;;;;;1.30;0.60;;;23.10;47.90;;;;;;4977414;28;20811;-69
2022/05/25 11:20:01;;;;;;;0.70;0.50;;;23.20;47.10;;;;;;4976154;28;20977;-70
2022/05/25 11:22:40;;;;;;;0.70;0.50;;;23.00;46.40;;;;;;4975122;28;20524;-69
2022/05/25 11:25:22;;;;;;;0.60;0.50;;;23.00;46.30;;;;;;4974685;28;20864;-70
2022/05/25 11:28:08;;;;;;;0.60;0.50;;;22.80;46.30;;;;;;4974930;28;20466;-70
2022/05/25 11:30:44;;;;;;;0.60;0.50;;;22.70;48.40;;;;;;4974890;28;20438;-70
2022/05/25 11:33:25;;;;;;;0.60;0.50;;;22.70;50.30;;;;;;4974607;28;20929;-69
2022/05/25 11:36:04;;;;;;;0.70;0.50;;;22.80;47.10;;;;;;4974968;28;20493;-69
2022/05/25 11:38:53;;;;;;;0.60;0.50;;;22.60;47.10;;;;;;4975314;28;20525;-70
2022/05/25 11:41:33;;;;;;;0.60;0.50;;;22.60;48.10;;;;;;4974727;28;20576;-69
2022/05/25 11:44:14;;;;;;;0.63;0.50;;;22.50;49.20;;;;;;4974979;28;20438;-70
2022/05/25 11:46:44;;;;;;;0.70;0.60;;;21.90;50.60;;;;;;4974620;28;20469;-70
2022/05/25 11:49:46;;;;;;;0.87;0.60;;;22.00;50.30;;;;;;4974551;28;20458;-70
2022/05/25 11:52:58;;;;;;;0.70;0.50;;;22.40;50.20;;;;;;4958427;28;20466;-70
2022/05/25 11:55:29;;;;;;;0.60;0.50;;;23.20;48.20;;;;;;4964309;28;20520;-70
2022/05/25 11:58:07;;;;;;;0.70;0.50;;;23.90;47.30;;;;;;4974575;28;20493;-69
2022/05/25 12:00:49;;;;;;;0.60;0.50;;;24.20;44.90;;;;;;4974521;28;20453;-70
2022/05/25 12:03:40;;;;;;;0.60;0.50;;;24.40;47.60;;;;;;4974605;28;20517;-70
2022/05/25 12:06:31;;;;;;;0.70;0.60;;;23.90;46.40;;;;;;4974501;28;20446;-69
2022/05/25 12:09:12;;;;;;;1.30;0.50;;;23.60;46.30;;;;;;4972352;28;20957;-70
2022/05/25 12:11:43;;;;;;;0.70;0.60;;;23.50;44.90;;;;;;4974377;28;20465;-72
2022/05/25 12:14:34;;;;;;;0.70;0.50;;;23.30;47.50;;;;;;4974488;28;20441;-69
2022/05/25 12:17:10;;;;;;;0.60;0.50;;;23.30;48.70;;;;;;4969825;28;21090;-70
2022/05/25 12:19:38;;;;;;;0.60;0.50;;;23.30;48.20;;;;;;4974393;28;20453;-70
2022/05/25 12:22:09;;;;;;;0.60;0.50;;;23.50;48.90;;;;;;4976325;28;20477;-71
2022/05/25 12:24:38;;;;;;;0.60;0.50;;;23.50;46.30;;;;;;4978579;28;20453;-69
2022/05/25 12:27:10;;;;;;;0.70;0.60;;;23.40;47.70;;;;;;4977795;28;20485;-70
2022/05/25 12:29:41;;;;;;;0.60;0.50;;;23.40;47.20;;;;;;4977671;28;20818;-69
2022/05/25 12:32:10;;;;;;;0.70;0.60;;;23.40;45.60;;;;;;4977541;28;20892;-69
2022/05/25 12:34:42;;;;;;;0.60;0.50;;;23.40;47.70;;;;;;4977995;28;20453;-69
2022/05/25 12:37:11;;;;;;;0.70;0.50;;;23.40;48.70;;;;;;4977611;28;20799;-69
2022/05/25 12:39:57;;;;;;;0.70;0.60;;;23.80;48.10;;;;;;4977981;28;20819;-69
2022/05/25 12:42:41;;;;;;;0.70;0.60;;;24.20;48.30;;;;;;4978029;28;20469;-70
2022/05/25 12:48:31;;;;;;;0.60;0.50;;;24.80;45.00;;;;;;4977714;28;20476;-70
2022/05/25 12:51:02;;;;;;;0.60;0.50;;;25.20;44.20;;;;;;4977252;28;20474;-69
2022/05/25 12:53:35;;;;;;;0.70;0.60;;;25.10;44.00;;;;;;4977678;28;20430;-68
2022/05/25 12:56:05;;;;;;;0.60;0.50;;;25.40;45.20;;;;;;4977331;28;20600;-69
2022/05/25 12:58:34;;;;;;;0.70;0.60;;;25.30;42.40;;;;;;4977944;28;20528;-69
2022/05/25 13:01:04;;;;;;;0.60;0.50;;;25.20;42.60;;;;;;4977273;28;20548;-70
2022/05/25 13:04:02;;;;;;;0.60;0.50;;;25.10;45.40;;;;;;4977427;28;20836;-69
2022/05/25 13:07:03;;;;;;;0.60;0.50;;;24.70;44.20;;;;;;4976985;28;20456;-70
2022/05/25 13:09:40;;;;;;;0.63;0.50;;;24.90;44.80;;;;;;4976950;28;20442;-69
2022/05/25 13:12:45;;;;;;;0.90;0.77;;;24.80;47.40;;;;;;4977272;28;20479;-70
2022/05/25 13:15:44;;;;;;;0.70;0.50;;;24.80;46.60;;;;;;4977466;28;20470;-69
2022/05/25 13:18:53;;;;;;;0.60;0.50;;;24.50;45.30;;;;;;4976743;28;20453;-70
2022/05/25 13:21:35;;;;;;;0.60;0.50;;;24.90;45.10;;;;;;4977295;28;20497;-69
2022/05/25 13:24:26;;;;;;;0.60;0.50;;;25.10;42.50;;;;;;4977290;28;20562;-70
2022/05/25 13:27:10;;;;;;;0.90;0.60;;;25.00;41.90;;;;;;4976666;28;20445;-69
2022/05/25 13:29:49;;;;;;;0.60;0.50;;;24.90;41.30;;;;;;4977171;28;20443;-69
2022/05/25 13:32:35;;;;;;;0.60;0.53;;;24.80;42.90;;;;;;4976796;28;20485;-69
2022/05/25 13:35:27;;;;;;;0.70;0.60;;;25.00;41.90;;;;;;4976758;28;20427;-69
2022/05/25 13:37:57;;;;;;;0.70;0.60;;;25.10;43.40;;;;;;4976947;28;20430;-69
2022/05/25 13:40:29;;;;;;;0.63;0.53;;;25.20;41.30;;;;;;4977398;28;20457;-69
2022/05/25 13:42:56;;;;;;;0.60;0.50;;;25.20;40.50;;;;;;4977280;28;20438;-70
2022/05/25 13:45:25;;;;;;;0.70;0.60;;;25.40;41.00;;;;;;4976800;28;20449;-69
2022/05/25 13:47:54;;;;;;;0.70;0.60;;;25.10;43.00;;;;;;4976868;28;20497;-68
2022/05/25 13:50:32;;;;;;;0.60;0.50;;;25.20;41.60;;;;;;4976685;28;20454;-69
2022/05/25 13:52:59;;;;;;;0.60;0.50;;;25.20;41.90;;;;;;4976604;28;20545;-70
2022/05/25 13:55:29;;;;;;;0.60;0.50;;;25.40;42.40;;;;;;4976107;28;20454;-68
2022/05/25 13:57:59;;;;;;;0.70;0.50;;;25.80;39.50;;;;;;4975518;28;20441;-68
2022/05/25 14:00:35;;;;;;;0.60;0.50;;;25.70;41.30;;;;;;4975426;28;20453;-68
2022/05/25 14:03:05;;;;;;;0.70;0.60;;;24.60;39.80;;;;;;4975499;28;20645;-67
2022/05/25 14:05:36;;;;;;;0.60;0.57;;;24.30;44.40;;;;;;4975410;28;20430;-68
2022/05/25 14:08:12;;;;;;;0.70;0.60;;;24.70;42.90;;;;;;4975340;28;20517;-68
2022/05/25 14:10:55;;;;;;;0.80;0.50;;;24.80;42.00;;;;;;4974996;28;20966;-68
2022/05/25 14:13:24;;;;;;;0.70;0.50;;;25.00;42.60;;;;;;4975462;28;20429;-68
2022/05/25 14:16:01;;;;;;;0.60;0.50;;;25.10;40.20;;;;;;4975332;28;20450;-69
2022/05/25 14:18:30;;;;;;;0.60;0.50;;;25.30;40.20;;;;;;4975252;28;20442;-69
2022/05/25 14:20:59;;;;;;;0.80;0.60;;;25.30;40.30;;;;;;4975132;28;20474;-69
2022/05/25 14:23:30;;;;;;;0.70;0.50;;;25.40;40.70;;;;;;4975091;28;20531;-68
2022/05/25 14:26:01;;;;;;;0.60;0.50;;;25.30;41.80;;;;;;4975135;28;20435;-68
2022/05/25 14:28:34;;;;;;;0.70;0.50;;;25.20;41.00;;;;;;4974928;28;20880;-69
2022/05/25 14:31:01;;;;;;;0.90;0.50;;;25.20;40.70;;;;;;4974818;28;20529;-69
2022/05/25 14:33:28;;;;;;;0.60;0.50;;;24.50;41.30;;;;;;4974964;28;20450;-69
2022/05/25 14:36:00;;;;;;;0.63;0.50;;;24.40;42.50;;;;;;4974809;28;20485;-69
2022/05/25 14:38:34;;;;;;;0.70;0.50;;;24.50;43.40;;;;;;4974846;28;20469;-69
2022/05/25 14:41:01;;;;;;;0.70;0.60;;;24.70;44.80;;;;;;4974904;28;20473;-70
2022/05/25 14:43:39;;;;;;;0.70;0.50;;;25.00;42.70;;;;;;4975335;28;20921;-70
2022/05/25 14:46:15;;;;;;;0.70;0.60;;;25.50;43.40;;;;;;4975803;28;20482;-70
2022/05/25 14:48:44;;;;;;;0.70;0.50;;;25.60;42.30;;;;;;4975422;28;20989;-71
2022/05/25 14:51:16;;;;;;;0.60;0.60;;;25.80;41.90;;;;;;4975434;28;20470;-70
2022/05/25 14:53:43;;;;;;;0.60;0.50;;;26.00;42.30;;;;;;4975434;28;20799;-70
2022/05/25 14:56:21;;;;;;;0.60;0.50;;;26.10;42.00;;;;;;4975301;28;20960;-69
2022/05/25 14:58:50;;;;;;;1.10;0.50;;;26.20;41.50;;;;;;4975369;28;20438;-70
2022/05/25 15:01:20;;;;;;;0.70;0.50;;;26.40;43.20;;;;;;4975112;28;20497;-70
2022/05/25 15:04:01;;;;;;;0.80;0.67;;;26.50;43.10;;;;;;4975116;28;20949;-69
2022/05/25 15:06:52;;;;;;;0.70;0.50;;;26.30;41.90;;;;;;4975337;28;20485;-69
2022/05/25 15:09:26;;;;;;;0.70;0.70;;;26.10;42.20;;;;;;4975080;28;20906;-70
2022/05/25 15:12:17;;;;;;;1.00;0.60;;;26.00;40.90;;;;;;4975874;28;20516;-70
2022/05/25 15:20:27;;;;;;;0.70;0.50;;;26.20;40.50;;;;;;4975011;28;20401;-69
2022/05/25 15:22:58;;;;;;;0.60;0.50;;;26.30;41.60;;;;;;4975061;28;20454;-71
2022/05/25 15:25:31;;;;;;;0.60;0.50;;;26.30;41.10;;;;;;4975406;28;20536;-69
2022/05/25 15:28:01;;;;;;;0.60;0.50;;;26.40;40.30;;;;;;4974441;28;20486;-70
2022/05/25 15:30:30;;;;;;;0.70;0.50;;;26.50;41.10;;;;;;4975295;28;20442;-70
2022/05/25 15:32:58;;;;;;;0.70;0.50;;;26.50;41.30;;;;;;4974739;28;20504;-70
2022/05/25 15:35:25;;;;;;;0.67;0.50;;;26.70;41.50;;;;;;4975124;28;20472;-70
2022/05/25 15:37:55;;;;;;;0.60;0.50;;;26.70;40.50;;;;;;4974943;28;20446;-70
2022/05/25 15:40:23;;;;;;;0.70;0.50;;;26.60;41.30;;;;;;4975926;28;20446;-70
2022/05/25 15:42:49;;;;;;;0.70;0.50;;;26.30;41.60;;;;;;4975232;28;20508;-71
2022/05/25 15:45:16;;;;;;;0.60;0.60;;;26.30;42.30;;;;;;4975216;28;20504;-70
2022/05/25 15:47:43;;;;;;;0.80;0.60;;;26.30;41.90;;;;;;4974452;28;20826;-69
2022/05/25 15:50:12;;;;;;;0.60;0.60;;;26.10;42.00;;;;;;4974890;28;20853;-69
2022/05/25 15:52:39;;;;;;;0.77;0.60;;;25.90;43.40;;;;;;4974951;28;20481;-70
2022/05/25 15:55:08;;;;;;;0.63;0.50;;;25.90;43.10;;;;;;4974865;28;20458;-69
2022/05/25 15:57:35;;;;;;;0.60;0.50;;;25.90;42.40;;;;;;4978034;28;20480;-69
2022/05/25 16:00:03;;;;;;;0.67;0.60;;;25.70;42.40;;;;;;4978661;28;20457;-69
2022/05/25 16:02:30;;;;;;;0.80;0.60;;;25.60;42.80;;;;;;4978663;28;20481;-69
2022/05/25 16:04:57;;;;;;;0.80;0.63;;;25.50;43.10;;;;;;4978393;28;20874;-69
2022/05/25 16:09:11;;;;;;;1.27;0.70;;;25.50;43.00;;;;;;4978688;28;20869;-70
2022/05/25 16:10:11;;;;;;;0.70;0.50;;;25.30;43.00;;;;;;4978212;28;20452;-70
2022/05/25 16:12:38;;;;;;;0.70;0.57;;;25.10;43.80;;;;;;4978648;28;20508;-69
2022/05/25 16:15:05;;;;;;;0.60;0.50;;;24.90;44.20;;;;;;4978526;28;20442;-69
2022/05/25 16:17:32;;;;;;;0.90;0.67;;;24.90;44.30;;;;;;4978599;28;20446;-70
2022/05/25 16:19:59;;;;;;;0.80;0.60;;;24.90;44.30;;;;;;4977990;28;20449;-69
2022/05/25 16:22:26;;;;;;;0.60;0.50;;;24.90;44.50;;;;;;4978166;28;20470;-71
2022/05/25 16:24:52;;;;;;;0.60;0.50;;;24.90;44.60;;;;;;4978536;28;20449;-69
2022/05/25 16:27:21;;;;;;;0.60;0.50;;;24.90;44.70;;;;;;4978389;28;20450;-70
2022/05/25 16:29:48;;;;;;;0.60;0.43;;;24.80;44.50;;;;;;4978306;28;20493;-69
2022/05/25 16:32:15;;;;;;;0.87;0.50;;;24.70;44.10;;;;;;4978205;28;20473;-70